Terminal Aerodrome Forecast
Issued by NWS Grand Junction, CO

Home | Current Version | Previous Version | Text Only | Print | Product List | Glossary On
Versions: 1 2 3 4 5 6 7 8 9 10 11 12 13 14
000
FTUS45 KGJT 222123 AAC
TAFGJT
TAF AMD
KGJT 222123Z 2221/2318 30010G20KT P6SM BKN070
     FM230000 28011G19KT P6SM SCT120
     FM230200 33011G19KT P6SM SCT200
     FM230600 21015G27KT P6SM VCSH SCT140
     FM230700 29011G20KT P6SM VCSH BKN130
     FM230900 31011G19KT P6SM VCSH SCT100
     FM231200 29009KT P6SM BKN060=

USA.gov is the U.S. government's official web portal to all federal, state and local government web resources and services.